Time;durP1;ratioP1;P1;durP2;ratioP2;P2;SDS_P1;SDS_P2;PMS_P1;PMS_P2;Temp;Humidity;BMP_temperature;BMP_pressure;BME280_temperature;BME280_humidity;BME280_pressure;Samples;Min_cycle;Max_cycle;Signal;HPM_P1;HPM_P2
2021/12/13 00:01:08;;;;;;;0.70;0.70;;;9.00;99.90;;;;;;5076067;28;20180;-75
2021/12/13 00:04:07;;;;;;;0.93;0.93;;;8.90;99.90;;;;;;5048573;28;20204;-75
2021/12/13 00:06:38;;;;;;;0.57;0.57;;;9.00;99.90;;;;;;5061793;28;20264;-77
2021/12/13 00:09:10;;;;;;;1.20;1.07;;;9.00;99.90;;;;;;5075318;28;20221;-75
2021/12/13 00:11:41;;;;;;;0.43;0.43;;;9.00;99.90;;;;;;5068873;28;20188;-75
2021/12/13 00:14:22;;;;;;;0.97;0.83;;;9.00;99.90;;;;;;5069776;28;20215;-78
2021/12/13 00:16:56;;;;;;;0.83;0.83;;;9.00;99.90;;;;;;5065174;28;20182;-77
2021/12/13 00:19:30;;;;;;;0.97;0.97;;;9.00;99.90;;;;;;5075106;28;20183;-77
2021/12/13 00:22:05;;;;;;;0.50;0.50;;;9.00;99.90;;;;;;5074116;28;20555;-75
2021/12/13 00:24:43;;;;;;;0.00;0.00;;;9.00;99.90;;;;;;5075022;28;20211;-74
2021/12/13 00:27:12;;;;;;;0.33;0.33;;;9.00;99.90;;;;;;5069937;28;20188;-75
2021/12/13 00:29:51;;;;;;;1.13;0.30;;;9.00;99.90;;;;;;5064217;28;20202;-75
2021/12/13 00:32:30;;;;;;;0.20;0.20;;;9.00;99.90;;;;;;5071184;28;20179;-75
2021/12/13 00:34:59;;;;;;;0.23;0.23;;;9.10;99.90;;;;;;5075084;28;20697;-75
2021/12/13 00:37:35;;;;;;;0.10;0.10;;;9.10;99.90;;;;;;5073300;28;20207;-77
2021/12/13 00:40:22;;;;;;;0.00;0.00;;;9.10;99.90;;;;;;5063928;28;20598;-76
2021/12/13 00:43:29;;;;;;;0.17;0.17;;;9.00;99.90;;;;;;5067206;28;20227;-76
2021/12/13 00:46:03;;;;;;;0.73;0.57;;;9.00;99.90;;;;;;5061086;28;20558;-76
2021/12/13 00:48:31;;;;;;;0.53;0.53;;;9.00;99.90;;;;;;5075417;28;20180;-75
2021/12/13 00:51:06;;;;;;;0.10;0.10;;;8.90;99.90;;;;;;5077210;28;20188;-76
2021/12/13 00:53:39;;;;;;;0.10;0.10;;;8.90;99.90;;;;;;5076653;28;20639;-76
2021/12/13 00:56:42;;;;;;;1.60;0.40;;;8.90;99.90;;;;;;5076847;28;20593;-77
2021/12/13 00:59:09;;;;;;;0.03;0.03;;;8.80;99.90;;;;;;5077481;28;20176;-77
2021/12/13 01:01:36;;;;;;;0.37;0.20;;;8.90;99.90;;;;;;5077460;28;20179;-75
2021/12/13 01:04:07;;;;;;;0.30;0.30;;;8.90;99.90;;;;;;5074099;28;20193;-75
2021/12/13 01:07:17;;;;;;;0.10;0.10;;;8.90;99.90;;;;;;5072483;28;20263;-76
2021/12/13 01:10:24;;;;;;;0.10;0.10;;;8.90;99.90;;;;;;5073135;28;20606;-76
2021/12/13 01:12:51;;;;;;;0.20;0.20;;;8.90;99.90;;;;;;5010972;28;20229;-74
2021/12/13 01:15:33;;;;;;;0.10;0.10;;;8.80;99.90;;;;;;5011126;28;20179;-75
2021/12/13 01:18:23;;;;;;;2.00;0.40;;;8.90;99.90;;;;;;5039967;28;20720;-74
2021/12/13 01:23:46;;;;;;;0.00;0.00;;;8.90;99.90;;;;;;5072978;28;20570;-75
2021/12/13 01:28:52;;;;;;;0.13;0.13;;;9.00;99.90;;;;;;5062938;28;20195;-75
2021/12/13 01:31:24;;;;;;;1.10;1.07;;;9.00;99.90;;;;;;5067539;28;20182;-76
2021/12/13 01:33:52;;;;;;;0.83;0.83;;;9.00;99.90;;;;;;5073390;28;20212;-75
2021/12/13 01:36:26;;;;;;;0.67;0.67;;;9.10;99.90;;;;;;5071872;28;20267;-75
2021/12/13 01:39:00;;;;;;;0.43;0.43;;;9.10;99.90;;;;;;5070820;28;20250;-74
2021/12/13 01:41:38;;;;;;;0.00;0.00;;;9.00;99.90;;;;;;5055120;28;20199;-75
2021/12/13 01:44:18;;;;;;;0.30;0.30;;;9.10;99.90;;;;;;5073837;28;20218;-74
2021/12/13 01:46:48;;;;;;;0.40;0.40;;;9.10;99.90;;;;;;5068372;28;20225;-75
2021/12/13 01:49:13;;;;;;;0.20;0.20;;;9.10;99.90;;;;;;5073408;28;20219;-75
2021/12/13 01:51:39;;;;;;;0.10;0.10;;;9.10;99.90;;;;;;5071764;28;20231;-76
2021/12/13 01:54:17;;;;;;;9.93;2.47;;;9.10;99.90;;;;;;5071574;28;20216;-75
2021/12/13 01:59:44;;;;;;;0.20;0.20;;;9.10;99.90;;;;;;5075023;28;20172;-76
2021/12/13 02:02:26;;;;;;;0.03;0.03;;;9.10;99.90;;;;;;5074751;28;20675;-76
2021/12/13 02:05:04;;;;;;;0.23;0.23;;;9.10;99.90;;;;;;5073636;28;20183;-76
2021/12/13 02:07:45;;;;;;;0.07;0.07;;;9.10;99.90;;;;;;5073221;28;20233;-76
2021/12/13 02:10:30;;;;;;;0.10;0.10;;;9.10;99.90;;;;;;5064578;28;20671;-77
2021/12/13 02:13:01;;;;;;;0.20;0.20;;;9.10;99.90;;;;;;5074271;28;20266;-76
2021/12/13 02:18:18;;;;;;;0.27;0.27;;;9.10;99.90;;;;;;5072474;28;20183;-72
2021/12/13 02:20:50;;;;;;;0.10;0.10;;;9.10;99.90;;;;;;5073129;28;20185;-75
2021/12/13 02:23:16;;;;;;;0.17;0.17;;;9.10;99.90;;;;;;5079558;22;20237;-76
2021/12/13 02:25:46;;;;;;;0.47;0.47;;;9.10;99.90;;;;;;5067871;28;20605;-74
2021/12/13 02:28:26;;;;;;;0.27;0.27;;;9.10;99.90;;;;;;5059656;28;20169;-75
2021/12/13 02:31:08;;;;;;;0.80;0.57;;;9.10;99.90;;;;;;5062847;28;20203;-75
2021/12/13 02:33:38;;;;;;;0.00;0.00;;;9.10;99.90;;;;;;5070969;28;20204;-75
2021/12/13 02:36:09;;;;;;;0.53;0.53;;;9.10;99.90;;;;;;5071489;28;20331;-75
2021/12/13 02:38:40;;;;;;;0.10;0.10;;;9.10;99.90;;;;;;5070306;28;20263;-76
2021/12/13 02:41:07;;;;;;;0.33;0.33;;;9.10;99.90;;;;;;5051255;28;20587;-76
2021/12/13 02:43:37;;;;;;;0.37;0.37;;;9.00;99.90;;;;;;5068712;28;20204;-76
2021/12/13 02:46:04;;;;;;;0.10;0.10;;;9.10;99.90;;;;;;5066611;28;20173;-76
2021/12/13 02:48:53;;;;;;;0.30;0.30;;;9.10;99.90;;;;;;5069366;28;20222;-76
2021/12/13 02:51:29;;;;;;;0.00;0.00;;;9.10;99.90;;;;;;5071224;28;20187;-76
2021/12/13 02:54:05;;;;;;;0.13;0.13;;;9.10;99.90;;;;;;5069558;28;20235;-76
2021/12/13 02:56:36;;;;;;;0.27;0.27;;;9.10;99.90;;;;;;5070518;28;20172;-75
2021/12/13 02:59:04;;;;;;;0.23;0.23;;;9.10;99.90;;;;;;5069661;28;20176;-76
2021/12/13 03:01:51;;;;;;;1.37;1.27;;;9.10;99.90;;;;;;5070994;28;20184;-75
2021/12/13 03:04:20;;;;;;;0.23;0.23;;;9.10;99.90;;;;;;5069513;28;20718;-76
2021/12/13 03:06:55;;;;;;;1.07;1.03;;;9.10;99.90;;;;;;5070752;28;20259;-75
2021/12/13 03:09:24;;;;;;;0.70;0.70;;;9.00;99.90;;;;;;5069246;28;20597;-75
2021/12/13 03:11:52;;;;;;;0.63;0.63;;;9.00;99.90;;;;;;5070901;28;20280;-74
2021/12/13 03:14:19;;;;;;;0.87;0.87;;;9.00;99.90;;;;;;5070634;28;20211;-75
2021/12/13 03:16:52;;;;;;;0.00;0.00;;;9.00;99.90;;;;;;5057210;28;20712;-74
2021/12/13 03:19:40;;;;;;;0.30;0.30;;;9.00;99.90;;;;;;5069006;28;20184;-75
2021/12/13 03:22:30;;;;;;;0.10;0.10;;;8.90;99.90;;;;;;5070702;28;20172;-75
2021/12/13 03:25:29;;;;;;;0.10;0.10;;;9.00;99.90;;;;;;5070695;28;20686;-75
2021/12/13 03:28:33;;;;;;;0.10;0.10;;;9.00;99.90;;;;;;5063044;28;20193;-75
2021/12/13 03:31:08;;;;;;;0.50;0.20;;;9.00;99.90;;;;;;5055098;28;20268;-75
2021/12/13 03:33:56;;;;;;;0.00;0.00;;;9.00;99.90;;;;;;5060932;28;20342;-75
2021/12/13 03:36:42;;;;;;;1.17;0.77;;;9.00;99.90;;;;;;5074631;28;20172;-75
2021/12/13 03:39:10;;;;;;;0.30;0.30;;;9.00;99.90;;;;;;5069278;28;20644;-75
2021/12/13 03:41:40;;;;;;;0.40;0.40;;;9.00;99.90;;;;;;5056107;28;20181;-75
2021/12/13 03:44:14;;;;;;;0.10;0.10;;;9.00;99.90;;;;;;5074277;28;20207;-75
2021/12/13 03:46:44;;;;;;;0.00;0.00;;;9.00;99.90;;;;;;5069420;28;20176;-75
2021/12/13 03:49:10;;;;;;;0.10;0.10;;;9.00;99.90;;;;;;5074418;28;20172;-74
2021/12/13 03:51:39;;;;;;;0.13;0.13;;;9.00;99.90;;;;;;5074227;28;20180;-75
2021/12/13 03:54:07;;;;;;;0.33;0.33;;;9.00;99.90;;;;;;5073905;28;20212;-75
2021/12/13 03:56:40;;;;;;;0.40;0.40;;;9.00;99.90;;;;;;5073867;28;20191;-75
2021/12/13 03:59:16;;;;;;;0.10;0.10;;;8.90;99.90;;;;;;5074203;28;20165;-76
2021/12/13 04:02:01;;;;;;;0.60;0.60;;;8.90;99.90;;;;;;5074257;28;20251;-76
2021/12/13 04:04:38;;;;;;;1.43;0.30;;;8.90;99.90;;;;;;5074067;28;20295;-75
2021/12/13 04:07:39;;;;;;;0.13;0.13;;;8.90;99.90;;;;;;5073708;28;20186;-76
2021/12/13 04:10:16;;;;;;;0.20;0.20;;;8.90;99.90;;;;;;5058976;28;20275;-75
2021/12/13 04:12:47;;;;;;;0.10;0.10;;;8.90;99.90;;;;;;5074198;28;20295;-75
2021/12/13 04:15:17;;;;;;;0.00;0.00;;;8.90;99.90;;;;;;5072781;28;20176;-76
2021/12/13 04:17:56;;;;;;;0.10;0.10;;;8.90;99.90;;;;;;5073865;28;20533;-76
2021/12/13 04:20:30;;;;;;;0.20;0.20;;;8.90;99.90;;;;;;5074027;28;20290;-76
2021/12/13 04:23:00;;;;;;;0.10;0.10;;;8.90;99.90;;;;;;5073769;28;20196;-76
2021/12/13 04:25:31;;;;;;;0.57;0.57;;;8.90;99.90;;;;;;5073719;28;20168;-76
2021/12/13 04:28:14;;;;;;;0.00;0.00;;;8.90;99.90;;;;;;5065424;28;20683;-76
2021/12/13 04:30:46;;;;;;;0.10;0.10;;;8.90;99.90;;;;;;5065162;28;20627;-75
2021/12/13 04:33:27;;;;;;;0.10;0.10;;;8.90;99.90;;;;;;5065607;28;20263;-76
2021/12/13 04:35:57;;;;;;;0.33;0.33;;;8.90;99.90;;;;;;5048009;28;20702;-76
2021/12/13 04:38:32;;;;;;;0.00;0.00;;;8.90;99.90;;;;;;5071926;28;20172;-75
2021/12/13 04:40:58;;;;;;;0.10;0.10;;;8.90;99.90;;;;;;5043313;28;20173;-76
2021/12/13 04:43:24;;;;;;;0.33;0.33;;;8.90;99.90;;;;;;5069730;28;20208;-76
2021/12/13 04:45:59;;;;;;;0.20;0.20;;;8.90;99.90;;;;;;5071688;28;20536;-76
2021/12/13 04:48:31;;;;;;;0.10;0.10;;;8.90;99.90;;;;;;5067433;28;20183;-76
2021/12/13 04:51:08;;;;;;;0.00;0.00;;;8.90;99.90;;;;;;5057231;28;20184;-76
2021/12/13 04:53:39;;;;;;;0.10;0.10;;;8.90;99.90;;;;;;5073484;28;20217;-76
2021/12/13 04:56:12;;;;;;;0.00;0.00;;;8.90;99.90;;;;;;5072728;28;20191;-76
2021/12/13 04:58:39;;;;;;;0.00;0.00;;;8.90;99.90;;;;;;5072873;28;20163;-76
2021/12/13 05:01:09;;;;;;;1.10;1.00;;;8.90;99.90;;;;;;5072876;28;20267;-76
2021/12/13 05:03:39;;;;;;;0.20;0.20;;;8.80;99.90;;;;;;5073080;28;20204;-76
2021/12/13 05:06:14;;;;;;;0.10;0.10;;;8.80;99.90;;;;;;5072496;28;20180;-74
2021/12/13 05:08:40;;;;;;;0.10;0.10;;;8.80;99.90;;;;;;5072853;28;20225;-75
2021/12/13 05:11:08;;;;;;;0.20;0.20;;;8.70;99.90;;;;;;5072441;28;20184;-75
2021/12/13 05:13:44;;;;;;;0.33;0.30;;;8.70;99.90;;;;;;5072662;28;20254;-75
2021/12/13 05:16:12;;;;;;;1.17;1.07;;;8.60;99.90;;;;;;5072352;28;20204;-75
2021/12/13 05:18:44;;;;;;;0.10;0.10;;;8.60;99.90;;;;;;5072445;28;20701;-75
2021/12/13 05:21:14;;;;;;;0.10;0.10;;;8.60;99.90;;;;;;5072471;28;20185;-75
2021/12/13 05:23:58;;;;;;;1.13;1.07;;;8.50;99.90;;;;;;5072611;28;20247;-75
2021/12/13 05:26:29;;;;;;;0.20;0.20;;;8.50;99.90;;;;;;5072104;28;20172;-75
2021/12/13 05:28:54;;;;;;;0.00;0.00;;;8.50;99.90;;;;;;5059110;28;20674;-75
2021/12/13 05:31:24;;;;;;;0.40;0.40;;;8.50;99.90;;;;;;5063994;28;20180;-75
2021/12/13 05:33:55;;;;;;;0.97;0.97;;;8.50;99.90;;;;;;5072037;28;20290;-75
2021/12/13 05:36:24;;;;;;;0.10;0.10;;;8.50;99.90;;;;;;5072254;28;20255;-76
2021/12/13 05:39:17;;;;;;;1.27;0.60;;;8.50;99.90;;;;;;5069339;28;20664;-75
2021/12/13 05:42:10;;;;;;;0.43;0.43;;;8.50;99.90;;;;;;5054257;28;20272;-76
2021/12/13 05:44:42;;;;;;;0.00;0.00;;;8.50;99.90;;;;;;5071978;28;20234;-75
2021/12/13 05:47:21;;;;;;;2.20;0.50;;;8.60;99.90;;;;;;5067379;28;20240;-75
2021/12/13 05:49:47;;;;;;;0.40;0.40;;;8.60;99.90;;;;;;5072216;28;20671;-75
2021/12/13 05:52:33;;;;;;;0.20;0.20;;;8.60;99.90;;;;;;5072163;28;20180;-75
2021/12/13 05:55:05;;;;;;;1.30;0.73;;;8.60;99.90;;;;;;5071864;28;20207;-75
2021/12/13 05:57:36;;;;;;;0.30;0.30;;;8.60;99.90;;;;;;5071536;28;20176;-75
2021/12/13 06:00:06;;;;;;;0.30;0.30;;;8.60;99.90;;;;;;5071139;28;20544;-75
2021/12/13 06:03:04;;;;;;;0.10;0.10;;;8.60;99.90;;;;;;5072124;28;20195;-77
2021/12/13 06:05:32;;;;;;;0.30;0.30;;;8.60;99.90;;;;;;5072166;28;20207;-77
2021/12/13 06:08:27;;;;;;;0.20;0.20;;;8.60;99.90;;;;;;5071718;28;20191;-76
2021/12/13 06:10:57;;;;;;;0.63;0.30;;;8.60;99.90;;;;;;5072231;28;20596;-76
2021/12/13 06:13:46;;;;;;;0.10;0.10;;;8.60;99.90;;;;;;5072058;28;20215;-76
2021/12/13 06:16:43;;;;;;;0.00;0.00;;;8.60;99.90;;;;;;5071241;28;20589;-76
2021/12/13 06:19:19;;;;;;;0.17;0.17;;;8.50;99.90;;;;;;5045323;28;20196;-76
2021/12/13 06:22:03;;;;;;;0.10;0.10;;;8.50;99.90;;;;;;5071620;28;20176;-76
2021/12/13 06:24:36;;;;;;;0.30;0.30;;;8.50;99.90;;;;;;5071262;28;20235;-76
2021/12/13 06:27:16;;;;;;;0.43;0.43;;;8.60;99.90;;;;;;5064817;28;20178;-74
2021/12/13 06:29:55;;;;;;;0.20;0.20;;;8.60;99.90;;;;;;5056729;28;20264;-74
2021/12/13 06:32:39;;;;;;;0.10;0.10;;;8.60;99.90;;;;;;5069320;28;20168;-71
2021/12/13 06:35:32;;;;;;;0.30;0.07;;;8.60;99.90;;;;;;5069910;28;20658;-74
2021/12/13 06:38:19;;;;;;;1.40;1.10;;;8.60;99.90;;;;;;5071057;28;20179;-74
2021/12/13 06:41:06;;;;;;;0.43;0.43;;;8.60;99.90;;;;;;5052177;28;20215;-74
2021/12/13 06:43:35;;;;;;;0.13;0.13;;;8.60;99.90;;;;;;5067742;28;20230;-73
2021/12/13 06:46:08;;;;;;;0.20;0.20;;;8.70;99.90;;;;;;5068295;28;20679;-74
2021/12/13 06:48:44;;;;;;;0.40;0.40;;;8.70;99.90;;;;;;5070108;28;20199;-75
2021/12/13 06:51:16;;;;;;;0.63;0.63;;;8.70;99.90;;;;;;5070835;28;20214;-74
2021/12/13 06:54:03;;;;;;;0.10;0.10;;;8.70;99.90;;;;;;5070701;28;20273;-73
2021/12/13 06:56:31;;;;;;;0.10;0.10;;;8.80;99.90;;;;;;5070598;28;20168;-73
2021/12/13 06:58:59;;;;;;;0.83;0.83;;;8.80;99.90;;;;;;5069834;28;20200;-74
2021/12/13 07:01:29;;;;;;;0.30;0.30;;;8.80;99.90;;;;;;5069356;28;20940;-75
2021/12/13 07:04:02;;;;;;;0.10;0.10;;;8.80;99.90;;;;;;5071221;28;20257;-75
2021/12/13 07:06:28;;;;;;;0.40;0.40;;;8.90;99.90;;;;;;5074755;28;20176;-75
2021/12/13 07:09:27;;;;;;;0.00;0.00;;;8.90;99.90;;;;;;5075203;28;20619;-75
2021/12/13 07:11:56;;;;;;;0.00;0.00;;;8.90;99.90;;;;;;5040984;28;20220;-75
2021/12/13 07:14:38;;;;;;;1.60;0.57;;;8.90;99.90;;;;;;5073532;28;20204;-75
2021/12/13 07:17:27;;;;;;;0.00;0.00;;;8.90;99.90;;;;;;5073210;28;20172;-75
2021/12/13 07:19:53;;;;;;;0.00;0.00;;;8.90;99.90;;;;;;5074951;28;20180;-75
2021/12/13 07:22:25;;;;;;;0.33;0.33;;;8.90;99.90;;;;;;5073194;28;20182;-76
2021/12/13 07:25:22;;;;;;;0.40;0.40;;;8.90;99.90;;;;;;5074641;28;20208;-76
2021/12/13 07:27:50;;;;;;;0.03;0.03;;;9.00;99.90;;;;;;5055428;28;20264;-75
2021/12/13 07:30:23;;;;;;;0.10;0.10;;;9.00;99.90;;;;;;5062043;28;20196;-75
2021/12/13 07:32:57;;;;;;;0.03;0.03;;;9.10;99.90;;;;;;5074184;28;20183;-76
2021/12/13 07:35:29;;;;;;;0.40;0.40;;;9.10;99.90;;;;;;5067435;28;20172;-77
2021/12/13 07:38:15;;;;;;;0.30;0.30;;;9.10;99.90;;;;;;5054731;28;20191;-76
2021/12/13 07:40:44;;;;;;;1.00;0.33;;;9.10;99.90;;;;;;5052308;28;20231;-75
2021/12/13 07:43:21;;;;;;;0.10;0.10;;;9.10;99.90;;;;;;5068599;28;20203;-75
2021/12/13 07:45:50;;;;;;;0.83;0.30;;;9.10;99.90;;;;;;5073325;28;20198;-75
2021/12/13 07:48:50;;;;;;;0.10;0.10;;;9.10;99.90;;;;;;5069992;28;20206;-75
2021/12/13 07:51:15;;;;;;;0.40;0.40;;;9.10;99.90;;;;;;5070807;28;20199;-75
2021/12/13 07:53:47;;;;;;;0.00;0.00;;;9.10;99.90;;;;;;5073831;28;20203;-76
2021/12/13 07:56:21;;;;;;;0.43;0.43;;;9.00;99.90;;;;;;5074335;28;20632;-75
2021/12/13 07:58:59;;;;;;;0.17;0.17;;;9.00;99.90;;;;;;5073720;28;20656;-76
2021/12/13 08:01:29;;;;;;;0.00;0.00;;;9.00;99.90;;;;;;5074068;28;20173;-76
2021/12/13 08:04:09;;;;;;;0.10;0.10;;;9.00;99.90;;;;;;5074242;28;20207;-76
2021/12/13 08:06:45;;;;;;;0.60;0.40;;;9.00;99.90;;;;;;5073815;28;20180;-76
2021/12/13 08:09:14;;;;;;;0.00;0.00;;;9.00;99.90;;;;;;5073595;28;20205;-76
2021/12/13 08:11:51;;;;;;;0.00;0.00;;;9.00;99.90;;;;;;5074002;28;20562;-76
2021/12/13 08:14:28;;;;;;;0.30;0.30;;;9.00;99.90;;;;;;5073742;28;20212;-76
2021/12/13 08:16:54;;;;;;;0.20;0.20;;;9.00;99.90;;;;;;5071714;28;20176;-75
2021/12/13 08:19:25;;;;;;;0.43;0.43;;;9.00;99.90;;;;;;5073579;28;20173;-76
2021/12/13 08:21:58;;;;;;;0.73;0.70;;;9.00;99.90;;;;;;5073864;28;20204;-76
2021/12/13 08:24:41;;;;;;;0.17;0.17;;;9.00;99.90;;;;;;5072737;28;20307;-74
2021/12/13 08:27:25;;;;;;;0.77;0.40;;;9.00;99.90;;;;;;5071788;28;20532;-76
2021/12/13 08:30:02;;;;;;;0.10;0.10;;;9.00;99.90;;;;;;5053566;28;20173;-76
2021/12/13 08:32:28;;;;;;;0.10;0.10;;;9.00;99.90;;;;;;5047136;28;20197;-76
2021/12/13 08:34:57;;;;;;;0.37;0.37;;;9.00;99.90;;;;;;5073293;28;20216;-76
2021/12/13 08:37:32;;;;;;;0.10;0.10;;;9.00;99.90;;;;;;5073142;28;20177;-76
2021/12/13 08:40:06;;;;;;;24.83;0.73;;;9.00;99.90;;;;;;5061097;28;20553;-75
2021/12/13 08:42:37;;;;;;;0.23;0.23;;;9.10;99.90;;;;;;5062401;28;20241;-73
2021/12/13 08:45:15;;;;;;;0.00;0.00;;;9.10;99.90;;;;;;5071953;28;20184;-74
2021/12/13 08:47:47;;;;;;;0.33;0.33;;;9.10;99.90;;;;;;5068051;28;20180;-74
2021/12/13 08:50:26;;;;;;;0.00;0.00;;;9.10;99.90;;;;;;5072690;28;20180;-74
2021/12/13 08:53:03;;;;;;;0.10;0.10;;;9.10;99.90;;;;;;5073150;28;20195;-74
2021/12/13 08:55:35;;;;;;;0.07;0.07;;;9.10;99.90;;;;;;5073131;28;20175;-74
2021/12/13 08:58:14;;;;;;;0.50;0.50;;;9.20;99.90;;;;;;5072861;28;20656;-75
2021/12/13 09:00:54;;;;;;;0.00;0.00;;;9.20;99.90;;;;;;5072809;28;20171;-74
2021/12/13 09:03:37;;;;;;;0.47;0.47;;;9.20;99.90;;;;;;5073019;28;20314;-74
2021/12/13 09:06:17;;;;;;;0.30;0.30;;;9.20;99.90;;;;;;5072591;28;20258;-74
2021/12/13 09:08:57;;;;;;;0.67;0.50;;;9.20;99.90;;;;;;5072677;28;20614;-74
2021/12/13 09:11:42;;;;;;;0.20;0.20;;;9.20;99.90;;;;;;5072565;28;20547;-74
2021/12/13 09:14:14;;;;;;;0.20;0.20;;;9.20;99.90;;;;;;5072535;28;20208;-74
2021/12/13 09:16:40;;;;;;;0.10;0.10;;;9.20;99.90;;;;;;5072141;28;20172;-74
2021/12/13 09:19:19;;;;;;;0.70;0.30;;;9.20;99.90;;;;;;5072504;28;20169;-74
2021/12/13 09:21:49;;;;;;;0.40;0.40;;;9.30;99.90;;;;;;5071160;28;20894;-75
2021/12/13 09:24:24;;;;;;;0.20;0.20;;;9.30;99.90;;;;;;5072315;28;20587;-74
2021/12/13 09:26:50;;;;;;;0.10;0.10;;;9.30;99.90;;;;;;5069018;28;20183;-74
2021/12/13 09:29:17;;;;;;;0.83;0.47;;;9.30;99.90;;;;;;5058770;28;20172;-74
2021/12/13 09:31:43;;;;;;;0.20;0.20;;;9.30;99.90;;;;;;5064486;28;20225;-74
2021/12/13 09:34:15;;;;;;;0.23;0.23;;;9.30;99.90;;;;;;5071997;28;20235;-74
2021/12/13 09:36:44;;;;;;;0.27;0.27;;;9.40;99.90;;;;;;5071741;28;20180;-75
2021/12/13 09:39:16;;;;;;;0.00;0.00;;;9.40;99.90;;;;;;5065323;28;20188;-74
2021/12/13 09:41:58;;;;;;;0.00;0.00;;;9.40;99.90;;;;;;5055163;28;20224;-75
2021/12/13 09:44:45;;;;;;;0.47;0.47;;;9.40;99.90;;;;;;5072048;28;20199;-74
2021/12/13 09:47:14;;;;;;;0.60;0.23;;;9.50;99.90;;;;;;5067228;28;20176;-75
2021/12/13 09:50:05;;;;;;;0.20;0.20;;;9.50;99.90;;;;;;5072183;28;20231;-74
2021/12/13 09:52:35;;;;;;;0.30;0.30;;;9.50;99.90;;;;;;5069847;28;20197;-75
2021/12/13 09:55:06;;;;;;;0.10;0.10;;;9.60;99.90;;;;;;5071829;28;20185;-75
2021/12/13 09:57:41;;;;;;;0.93;0.87;;;9.60;99.90;;;;;;5071776;28;20185;-75
2021/12/13 10:00:19;;;;;;;1.50;1.20;;;9.60;99.90;;;;;;5071667;28;20171;-75
2021/12/13 10:02:51;;;;;;;0.10;0.10;;;9.60;99.90;;;;;;5070205;28;20272;-75
2021/12/13 10:05:22;;;;;;;0.27;0.27;;;9.60;99.90;;;;;;5071775;28;20176;-75
2021/12/13 10:07:55;;;;;;;0.77;0.77;;;9.60;99.90;;;;;;5070107;28;20237;-75
2021/12/13 10:10:27;;;;;;;0.40;0.40;;;9.70;99.90;;;;;;5066564;28;20195;-75
2021/12/13 10:12:58;;;;;;;0.20;0.20;;;9.70;99.90;;;;;;5071309;28;20690;-75
2021/12/13 10:15:41;;;;;;;0.10;0.10;;;9.70;99.90;;;;;;5070039;28;20191;-75
2021/12/13 10:18:13;;;;;;;0.10;0.10;;;9.70;99.90;;;;;;5071567;28;20570;-75
2021/12/13 10:20:44;;;;;;;0.17;0.17;;;9.70;99.90;;;;;;5071266;28;20211;-74
2021/12/13 10:23:24;;;;;;;1.40;0.43;;;9.80;99.90;;;;;;5071408;28;20314;-75
2021/12/13 10:25:52;;;;;;;0.30;0.30;;;9.90;99.90;;;;;;5070961;28;20176;-75
2021/12/13 10:28:23;;;;;;;1.23;0.30;;;10.00;99.90;;;;;;5060821;28;20192;-75
2021/12/13 10:31:06;;;;;;;0.40;0.40;;;10.00;99.90;;;;;;5064116;28;20257;-75
2021/12/13 10:33:34;;;;;;;0.40;0.40;;;10.10;99.90;;;;;;5071344;28;20197;-75
2021/12/13 10:36:02;;;;;;;2.13;0.87;;;10.20;99.90;;;;;;5071452;28;20243;-75
2021/12/13 10:38:39;;;;;;;0.20;0.20;;;10.20;99.90;;;;;;5070948;28;20177;-75
2021/12/13 10:41:08;;;;;;;0.00;0.00;;;10.30;99.90;;;;;;5042125;28;20188;-75
2021/12/13 10:43:41;;;;;;;0.50;0.50;;;10.40;99.90;;;;;;5069043;28;20205;-75
2021/12/13 10:46:18;;;;;;;0.23;0.23;;;10.50;99.90;;;;;;5065970;28;20467;-74
2021/12/13 10:48:47;;;;;;;0.30;0.23;;;10.70;99.90;;;;;;5044073;28;20651;-74
2021/12/13 10:51:22;;;;;;;0.73;0.73;;;10.80;99.90;;;;;;5064149;28;20614;-75
2021/12/13 10:53:51;;;;;;;0.40;0.40;;;10.90;99.90;;;;;;5069842;28;20211;-75
2021/12/13 10:56:25;;;;;;;0.20;0.20;;;11.10;99.90;;;;;;5070806;28;20668;-75
2021/12/13 10:58:55;;;;;;;0.30;0.23;;;11.20;99.90;;;;;;5072385;28;20171;-73
2021/12/13 11:01:27;;;;;;;0.30;0.30;;;11.20;99.90;;;;;;5071227;28;20187;-75
2021/12/13 11:03:54;;;;;;;0.63;0.63;;;11.30;99.90;;;;;;5071119;28;20196;-75
2021/12/13 11:06:21;;;;;;;0.37;0.37;;;11.20;99.90;;;;;;5069489;28;20253;-75
2021/12/13 11:08:48;;;;;;;0.10;0.10;;;11.10;99.90;;;;;;5071065;28;20239;-75
2021/12/13 11:11:40;;;;;;;0.10;0.10;;;11.10;99.90;;;;;;5069598;28;20275;-75
2021/12/13 11:14:12;;;;;;;0.37;0.30;;;11.10;99.90;;;;;;5061966;28;20314;-75
2021/12/13 11:16:43;;;;;;;0.13;0.13;;;11.10;99.90;;;;;;5070852;28;20183;-74
2021/12/13 11:19:12;;;;;;;0.10;0.10;;;11.20;99.90;;;;;;5071055;28;20184;-75
2021/12/13 11:21:41;;;;;;;0.10;0.10;;;11.20;99.90;;;;;;5071217;28;20172;-74
2021/12/13 11:24:12;;;;;;;0.60;0.60;;;11.10;99.90;;;;;;5071092;28;20226;-75
2021/12/13 11:26:40;;;;;;;1.80;1.27;;;11.20;99.90;;;;;;5070164;28;20180;-75
2021/12/13 11:29:09;;;;;;;0.20;0.20;;;11.40;99.90;;;;;;5058580;28;20593;-75
2021/12/13 11:32:21;;;;;;;0.73;0.63;;;11.50;99.90;;;;;;5063514;28;20638;-75
2021/12/13 11:35:08;;;;;;;0.13;0.13;;;11.60;99.90;;;;;;5070412;28;20610;-74
2021/12/13 11:37:53;;;;;;;1.20;0.50;;;11.60;99.90;;;;;;5070508;28;20182;-75
2021/12/13 11:40:37;;;;;;;0.60;0.60;;;11.50;99.90;;;;;;5054262;28;20178;-75
2021/12/13 11:43:35;;;;;;;0.77;0.37;;;11.50;99.90;;;;;;5064192;28;20232;-75
2021/12/13 11:46:30;;;;;;;0.70;0.53;;;11.60;99.90;;;;;;5046969;28;20242;-74
2021/12/13 11:49:39;;;;;;;0.10;0.10;;;11.50;99.90;;;;;;5037272;28;20200;-75
2021/12/13 11:52:37;;;;;;;0.00;0.00;;;11.50;99.90;;;;;;5054093;28;20192;-75
2021/12/13 11:55:44;;;;;;;0.50;0.40;;;11.40;99.90;;;;;;5074041;28;20240;-75
2021/12/13 11:58:48;;;;;;;0.10;0.10;;;11.30;99.90;;;;;;5012112;28;20345;-74
2021/12/13 12:01:47;;;;;;;0.00;0.00;;;11.30;99.90;;;;;;5073163;28;20657;-75
2021/12/13 12:04:40;;;;;;;0.17;0.17;;;11.30;99.90;;;;;;5074063;28;20231;-75
2021/12/13 12:07:21;;;;;;;1.60;0.73;;;11.30;99.90;;;;;;5073631;28;20238;-75
2021/12/13 12:10:20;;;;;;;0.10;0.10;;;11.40;99.90;;;;;;5074054;28;20233;-75
2021/12/13 12:13:09;;;;;;;0.40;0.40;;;11.40;99.90;;;;;;5021142;28;20216;-74
2021/12/13 12:15:41;;;;;;;1.10;0.20;;;11.30;99.90;;;;;;5073860;28;20183;-75
2021/12/13 12:18:11;;;;;;;0.77;0.77;;;11.20;99.90;;;;;;5074110;28;20183;-74
2021/12/13 12:20:43;;;;;;;0.77;0.20;;;11.10;99.90;;;;;;5072571;28;20182;-74
2021/12/13 12:23:24;;;;;;;0.10;0.10;;;11.00;99.90;;;;;;5073522;28;20308;-74
2021/12/13 12:25:50;;;;;;;0.50;0.50;;;10.90;99.90;;;;;;5073247;28;20185;-74
2021/12/13 12:28:18;;;;;;;0.10;0.10;;;10.80;99.90;;;;;;5063743;28;20547;-74
2021/12/13 12:30:47;;;;;;;0.10;0.10;;;10.70;99.90;;;;;;5066186;28;20191;-74
2021/12/13 12:33:26;;;;;;;0.00;0.00;;;10.60;99.90;;;;;;5073450;28;20707;-74
2021/12/13 12:35:52;;;;;;;0.10;0.10;;;10.60;99.90;;;;;;5073359;28;20544;-74
2021/12/13 12:38:33;;;;;;;0.00;0.00;;;10.60;99.90;;;;;;5073231;28;20648;-74
2021/12/13 12:41:32;;;;;;;0.30;0.30;;;10.60;99.90;;;;;;5043487;28;20183;-74
2021/12/13 12:43:57;;;;;;;0.20;0.20;;;10.60;99.90;;;;;;5060983;28;20196;-75
2021/12/13 12:46:23;;;;;;;0.00;0.00;;;10.60;99.90;;;;;;5068063;28;20207;-75
2021/12/13 12:48:54;;;;;;;0.33;0.33;;;10.70;99.90;;;;;;5071573;28;20191;-75
2021/12/13 12:51:26;;;;;;;0.20;0.20;;;10.70;99.90;;;;;;5073284;28;20176;-74
2021/12/13 12:54:18;;;;;;;0.70;0.70;;;10.70;99.90;;;;;;5073175;28;20200;-74
2021/12/13 12:56:56;;;;;;;0.40;0.40;;;10.70;99.90;;;;;;5072722;28;20210;-74
2021/12/13 12:59:32;;;;;;;0.00;0.00;;;10.60;99.90;;;;;;5073389;28;20255;-74
2021/12/13 13:02:03;;;;;;;0.00;0.00;;;10.50;99.90;;;;;;5072489;28;20164;-73
2021/12/13 13:04:34;;;;;;;0.00;0.00;;;10.40;99.90;;;;;;5072913;28;20203;-74
2021/12/13 13:07:27;;;;;;;0.60;0.13;;;10.40;99.90;;;;;;5073046;28;20187;-74
2021/12/13 13:10:00;;;;;;;0.00;0.00;;;10.50;99.90;;;;;;5047838;28;20179;-74
2021/12/13 13:12:34;;;;;;;0.10;0.10;;;10.40;99.90;;;;;;5071453;28;20663;-75
2021/12/13 13:15:19;;;;;;;0.00;0.00;;;10.40;99.90;;;;;;5072824;28;20742;-75
2021/12/13 13:17:51;;;;;;;0.10;0.10;;;10.30;99.90;;;;;;5072670;28;20185;-75
2021/12/13 13:20:39;;;;;;;0.30;0.13;;;10.30;99.90;;;;;;5072234;28;20205;-74
2021/12/13 13:23:07;;;;;;;0.10;0.10;;;10.30;99.90;;;;;;5072444;28;20212;-75
2021/12/13 13:25:38;;;;;;;1.37;0.27;;;10.20;99.90;;;;;;5072420;28;20194;-75
2021/12/13 13:28:17;;;;;;;0.10;0.10;;;10.30;99.90;;;;;;5064577;28;20178;-75
2021/12/13 13:30:49;;;;;;;0.30;0.30;;;10.30;99.90;;;;;;5064641;28;20266;-74
2021/12/13 13:33:16;;;;;;;0.10;0.10;;;10.20;99.90;;;;;;5070952;28;20201;-75
2021/12/13 13:35:42;;;;;;;0.10;0.10;;;10.10;99.90;;;;;;5072246;28;20708;-74
2021/12/13 13:38:18;;;;;;;0.00;0.00;;;10.10;99.90;;;;;;5070826;28;20176;-75
2021/12/13 13:40:44;;;;;;;0.10;0.10;;;10.20;99.90;;;;;;5053909;28;20208;-75
2021/12/13 13:43:12;;;;;;;0.10;0.10;;;10.10;99.90;;;;;;5066340;28;20228;-75
2021/12/13 13:45:44;;;;;;;0.30;0.30;;;10.10;99.90;;;;;;5072175;28;20180;-75
2021/12/13 13:48:15;;;;;;;0.10;0.10;;;10.10;99.90;;;;;;5062854;28;20652;-75
2021/12/13 13:50:47;;;;;;;0.10;0.10;;;10.10;99.90;;;;;;5072378;28;20172;-76
2021/12/13 13:53:21;;;;;;;0.00;0.00;;;10.10;99.90;;;;;;5070469;28;20240;-75